sensor_id;sensor_type;location;lat;lon;timestamp;P1;durP1;ratioP1;P2;durP2;ratioP2
66143;SDS011;52947;50.842;6.084;2023-12-22T00:00:20;19.52;;;6.22;;
66143;SDS011;52947;50.842;6.084;2023-12-22T00:02:48;21.05;;;6.10;;
66143;SDS011;52947;50.842;6.084;2023-12-22T00:05:17;17.70;;;4.93;;
66143;SDS011;52947;50.842;6.084;2023-12-22T00:07:45;19.58;;;5.10;;
66143;SDS011;52947;50.842;6.084;2023-12-22T00:10:13;21.85;;;6.45;;
66143;SDS011;52947;50.842;6.084;2023-12-22T00:12:42;23.38;;;6.50;;
66143;SDS011;52947;50.842;6.084;2023-12-22T00:15:09;21.67;;;5.78;;
66143;SDS011;52947;50.842;6.084;2023-12-22T00:17:39;22.00;;;5.63;;
66143;SDS011;52947;50.842;6.084;2023-12-22T00:20:07;20.15;;;5.82;;
66143;SDS011;52947;50.842;6.084;2023-12-22T00:22:40;12.57;;;5.13;;
66143;SDS011;52947;50.842;6.084;2023-12-22T00:25:08;25.45;;;7.03;;
66143;SDS011;52947;50.842;6.084;2023-12-22T00:27:36;18.20;;;5.50;;
66143;SDS011;52947;50.842;6.084;2023-12-22T00:30:05;19.50;;;5.45;;
66143;SDS011;52947;50.842;6.084;2023-12-22T00:32:34;23.25;;;5.65;;
66143;SDS011;52947;50.842;6.084;2023-12-22T00:35:04;20.27;;;5.20;;
66143;SDS011;52947;50.842;6.084;2023-12-22T00:37:32;26.45;;;5.57;;
66143;SDS011;52947;50.842;6.084;2023-12-22T00:40:01;12.65;;;6.00;;
66143;SDS011;52947;50.842;6.084;2023-12-22T00:42:30;15.85;;;5.90;;
66143;SDS011;52947;50.842;6.084;2023-12-22T00:44:58;18.15;;;5.57;;
66143;SDS011;52947;50.842;6.084;2023-12-22T00:47:26;22.02;;;5.57;;
66143;SDS011;52947;50.842;6.084;2023-12-22T00:49:54;16.00;;;5.15;;
66143;SDS011;52947;50.842;6.084;2023-12-22T00:52:24;21.60;;;7.03;;
66143;SDS011;52947;50.842;6.084;2023-12-22T00:54:53;27.40;;;7.82;;
66143;SDS011;52947;50.842;6.084;2023-12-22T00:57:20;17.90;;;5.32;;
66143;SDS011;52947;50.842;6.084;2023-12-22T00:59:48;24.88;;;6.43;;
66143;SDS011;52947;50.842;6.084;2023-12-22T01:02:17;16.95;;;6.93;;
66143;SDS011;52947;50.842;6.084;2023-12-22T01:04:45;20.23;;;6.28;;
66143;SDS011;52947;50.842;6.084;2023-12-22T01:07:13;21.30;;;5.38;;
66143;SDS011;52947;50.842;6.084;2023-12-22T01:09:43;16.02;;;4.38;;
66143;SDS011;52947;50.842;6.084;2023-12-22T01:12:11;21.10;;;5.53;;
66143;SDS011;52947;50.842;6.084;2023-12-22T01:14:39;23.88;;;6.75;;
66143;SDS011;52947;50.842;6.084;2023-12-22T01:17:07;22.40;;;5.22;;
66143;SDS011;52947;50.842;6.084;2023-12-22T01:19:35;13.40;;;5.22;;
66143;SDS011;52947;50.842;6.084;2023-12-22T01:22:03;24.92;;;5.68;;
66143;SDS011;52947;50.842;6.084;2023-12-22T01:24:31;22.23;;;6.35;;
66143;SDS011;52947;50.842;6.084;2023-12-22T01:27:00;21.80;;;6.35;;
66143;SDS011;52947;50.842;6.084;2023-12-22T01:29:28;20.45;;;5.50;;
66143;SDS011;52947;50.842;6.084;2023-12-22T01:31:56;17.95;;;5.57;;
66143;SDS011;52947;50.842;6.084;2023-12-22T01:34:24;23.50;;;6.50;;
66143;SDS011;52947;50.842;6.084;2023-12-22T01:36:52;23.67;;;5.55;;
66143;SDS011;52947;50.842;6.084;2023-12-22T01:39:20;21.77;;;5.25;;
66143;SDS011;52947;50.842;6.084;2023-12-22T01:41:48;16.55;;;5.40;;
66143;SDS011;52947;50.842;6.084;2023-12-22T01:44:18;17.02;;;5.95;;
66143;SDS011;52947;50.842;6.084;2023-12-22T01:46:46;15.00;;;5.35;;
66143;SDS011;52947;50.842;6.084;2023-12-22T01:49:14;16.85;;;6.07;;
66143;SDS011;52947;50.842;6.084;2023-12-22T01:51:42;13.82;;;4.95;;
66143;SDS011;52947;50.842;6.084;2023-12-22T01:54:11;25.98;;;6.15;;
66143;SDS011;52947;50.842;6.084;2023-12-22T01:56:41;23.08;;;6.28;;
66143;SDS011;52947;50.842;6.084;2023-12-22T01:59:09;19.05;;;6.20;;
66143;SDS011;52947;50.842;6.084;2023-12-22T02:01:40;24.77;;;5.55;;
66143;SDS011;52947;50.842;6.084;2023-12-22T02:04:11;14.90;;;4.57;;
66143;SDS011;52947;50.842;6.084;2023-12-22T02:06:39;16.83;;;5.32;;
66143;SDS011;52947;50.842;6.084;2023-12-22T02:09:09;14.35;;;5.25;;
66143;SDS011;52947;50.842;6.084;2023-12-22T02:11:37;20.25;;;5.47;;
66143;SDS011;52947;50.842;6.084;2023-12-22T02:14:05;24.27;;;5.05;;
66143;SDS011;52947;50.842;6.084;2023-12-22T02:16:37;18.17;;;5.13;;
66143;SDS011;52947;50.842;6.084;2023-12-22T02:19:15;12.32;;;4.82;;
66143;SDS011;52947;50.842;6.084;2023-12-22T02:22:00;21.42;;;5.00;;
66143;SDS011;52947;50.842;6.084;2023-12-22T02:24:36;23.67;;;6.60;;
66143;SDS011;52947;50.842;6.084;2023-12-22T02:27:05;16.35;;;5.90;;
66143;SDS011;52947;50.842;6.084;2023-12-22T02:29:42;14.93;;;4.78;;
66143;SDS011;52947;50.842;6.084;2023-12-22T02:32:17;14.15;;;4.57;;
66143;SDS011;52947;50.842;6.084;2023-12-22T02:34:51;16.75;;;5.50;;
66143;SDS011;52947;50.842;6.084;2023-12-22T02:37:21;15.85;;;5.25;;
66143;SDS011;52947;50.842;6.084;2023-12-22T02:39:52;17.85;;;5.25;;
66143;SDS011;52947;50.842;6.084;2023-12-22T02:42:21;22.48;;;5.47;;
66143;SDS011;52947;50.842;6.084;2023-12-22T02:44:56;21.23;;;5.88;;
66143;SDS011;52947;50.842;6.084;2023-12-22T02:47:25;17.23;;;5.55;;
66143;SDS011;52947;50.842;6.084;2023-12-22T02:49:54;23.50;;;5.65;;
66143;SDS011;52947;50.842;6.084;2023-12-22T02:52:23;23.38;;;5.63;;
66143;SDS011;52947;50.842;6.084;2023-12-22T02:54:52;21.73;;;6.22;;
66143;SDS011;52947;50.842;6.084;2023-12-22T02:57:20;28.85;;;9.10;;
66143;SDS011;52947;50.842;6.084;2023-12-22T02:59:48;29.40;;;5.80;;
66143;SDS011;52947;50.842;6.084;2023-12-22T03:02:16;21.58;;;6.10;;
66143;SDS011;52947;50.842;6.084;2023-12-22T03:04:44;19.30;;;5.15;;
66143;SDS011;52947;50.842;6.084;2023-12-22T03:07:13;22.35;;;7.32;;
66143;SDS011;52947;50.842;6.084;2023-12-22T03:09:42;27.20;;;5.78;;
66143;SDS011;52947;50.842;6.084;2023-12-22T03:12:12;12.75;;;4.75;;
66143;SDS011;52947;50.842;6.084;2023-12-22T03:14:40;14.90;;;5.35;;
66143;SDS011;52947;50.842;6.084;2023-12-22T03:17:08;17.33;;;4.97;;
66143;SDS011;52947;50.842;6.084;2023-12-22T03:19:37;9.13;;;4.40;;
66143;SDS011;52947;50.842;6.084;2023-12-22T03:22:06;17.35;;;4.53;;
66143;SDS011;52947;50.842;6.084;2023-12-22T03:24:34;19.50;;;5.68;;
66143;SDS011;52947;50.842;6.084;2023-12-22T03:27:03;25.08;;;6.80;;
66143;SDS011;52947;50.842;6.084;2023-12-22T03:29:33;17.02;;;5.13;;
66143;SDS011;52947;50.842;6.084;2023-12-22T03:32:01;24.90;;;5.53;;
66143;SDS011;52947;50.842;6.084;2023-12-22T03:34:29;23.60;;;5.65;;
66143;SDS011;52947;50.842;6.084;2023-12-22T03:36:57;12.38;;;6.13;;
66143;SDS011;52947;50.842;6.084;2023-12-22T03:39:25;20.13;;;5.82;;
66143;SDS011;52947;50.842;6.084;2023-12-22T03:41:53;17.85;;;6.53;;
66143;SDS011;52947;50.842;6.084;2023-12-22T03:44:21;24.33;;;6.45;;
66143;SDS011;52947;50.842;6.084;2023-12-22T03:46:53;32.58;;;7.45;;
66143;SDS011;52947;50.842;6.084;2023-12-22T03:49:22;20.95;;;6.72;;
66143;SDS011;52947;50.842;6.084;2023-12-22T03:51:50;19.40;;;6.32;;
66143;SDS011;52947;50.842;6.084;2023-12-22T03:54:18;30.08;;;8.00;;
66143;SDS011;52947;50.842;6.084;2023-12-22T03:56:46;34.33;;;8.05;;
66143;SDS011;52947;50.842;6.084;2023-12-22T03:59:14;22.58;;;7.97;;
66143;SDS011;52947;50.842;6.084;2023-12-22T04:01:49;30.45;;;8.27;;
66143;SDS011;52947;50.842;6.084;2023-12-22T04:04:20;41.47;;;10.68;;
66143;SDS011;52947;50.842;6.084;2023-12-22T04:06:49;40.97;;;9.15;;
66143;SDS011;52947;50.842;6.084;2023-12-22T04:09:17;31.13;;;6.63;;
66143;SDS011;52947;50.842;6.084;2023-12-22T04:11:46;38.28;;;9.95;;
66143;SDS011;52947;50.842;6.084;2023-12-22T04:14:14;31.40;;;8.05;;
66143;SDS011;52947;50.842;6.084;2023-12-22T04:16:43;25.80;;;6.88;;
66143;SDS011;52947;50.842;6.084;2023-12-22T04:19:11;24.33;;;7.75;;
66143;SDS011;52947;50.842;6.084;2023-12-22T04:21:40;36.60;;;8.60;;
66143;SDS011;52947;50.842;6.084;2023-12-22T04:24:08;36.85;;;8.55;;
66143;SDS011;52947;50.842;6.084;2023-12-22T04:26:37;25.90;;;7.32;;
66143;SDS011;52947;50.842;6.084;2023-12-22T04:29:04;27.85;;;7.50;;
66143;SDS011;52947;50.842;6.084;2023-12-22T04:31:50;22.63;;;6.25;;
66143;SDS011;52947;50.842;6.084;2023-12-22T04:34:18;25.35;;;7.40;;
66143;SDS011;52947;50.842;6.084;2023-12-22T04:36:47;26.05;;;6.18;;
66143;SDS011;52947;50.842;6.084;2023-12-22T04:39:15;26.23;;;6.07;;
66143;SDS011;52947;50.842;6.084;2023-12-22T04:41:43;31.65;;;6.07;;
66143;SDS011;52947;50.842;6.084;2023-12-22T04:44:11;23.75;;;6.35;;
66143;SDS011;52947;50.842;6.084;2023-12-22T04:46:39;21.98;;;5.45;;
66143;SDS011;52947;50.842;6.084;2023-12-22T04:49:07;16.40;;;5.70;;
66143;SDS011;52947;50.842;6.084;2023-12-22T04:51:35;30.20;;;7.32;;
66143;SDS011;52947;50.842;6.084;2023-12-22T04:54:05;35.00;;;6.35;;
66143;SDS011;52947;50.842;6.084;2023-12-22T04:56:32;21.27;;;5.55;;
66143;SDS011;52947;50.842;6.084;2023-12-22T04:59:00;18.85;;;5.10;;
66143;SDS011;52947;50.842;6.084;2023-12-22T05:01:29;16.17;;;5.05;;
66143;SDS011;52947;50.842;6.084;2023-12-22T05:03:56;25.95;;;5.72;;
66143;SDS011;52947;50.842;6.084;2023-12-22T05:06:25;20.67;;;6.07;;
66143;SDS011;52947;50.842;6.084;2023-12-22T05:08:53;14.45;;;4.95;;
66143;SDS011;52947;50.842;6.084;2023-12-22T05:11:22;16.23;;;4.65;;
66143;SDS011;52947;50.842;6.084;2023-12-22T05:13:50;21.92;;;5.78;;
66143;SDS011;52947;50.842;6.084;2023-12-22T05:16:18;19.33;;;6.78;;
66143;SDS011;52947;50.842;6.084;2023-12-22T05:18:46;23.48;;;5.40;;
66143;SDS011;52947;50.842;6.084;2023-12-22T05:21:14;22.73;;;6.20;;
66143;SDS011;52947;50.842;6.084;2023-12-22T05:23:42;16.13;;;5.90;;
66143;SDS011;52947;50.842;6.084;2023-12-22T05:26:15;18.77;;;5.43;;
66143;SDS011;52947;50.842;6.084;2023-12-22T05:28:46;21.40;;;5.53;;
66143;SDS011;52947;50.842;6.084;2023-12-22T05:31:16;30.13;;;7.93;;
66143;SDS011;52947;50.842;6.084;2023-12-22T05:33:44;16.75;;;5.50;;
66143;SDS011;52947;50.842;6.084;2023-12-22T05:36:12;20.92;;;6.78;;
66143;SDS011;52947;50.842;6.084;2023-12-22T05:38:40;26.02;;;5.75;;
66143;SDS011;52947;50.842;6.084;2023-12-22T05:41:08;21.42;;;6.97;;
66143;SDS011;52947;50.842;6.084;2023-12-22T05:43:36;29.60;;;7.13;;
66143;SDS011;52947;50.842;6.084;2023-12-22T05:46:05;24.35;;;8.05;;
66143;SDS011;52947;50.842;6.084;2023-12-22T05:48:33;26.67;;;7.60;;
66143;SDS011;52947;50.842;6.084;2023-12-22T05:51:02;25.50;;;5.93;;
66143;SDS011;52947;50.842;6.084;2023-12-22T05:53:33;33.97;;;7.50;;
66143;SDS011;52947;50.842;6.084;2023-12-22T05:56:01;22.08;;;5.78;;
66143;SDS011;52947;50.842;6.084;2023-12-22T05:58:30;19.42;;;6.53;;
66143;SDS011;52947;50.842;6.084;2023-12-22T06:00:58;28.33;;;6.43;;
66143;SDS011;52947;50.842;6.084;2023-12-22T06:03:28;31.17;;;8.35;;
66143;SDS011;52947;50.842;6.084;2023-12-22T06:05:55;26.23;;;6.47;;
66143;SDS011;52947;50.842;6.084;2023-12-22T06:08:24;34.10;;;7.35;;
66143;SDS011;52947;50.842;6.084;2023-12-22T06:10:52;35.78;;;6.97;;
66143;SDS011;52947;50.842;6.084;2023-12-22T06:13:20;26.60;;;6.15;;
66143;SDS011;52947;50.842;6.084;2023-12-22T06:15:48;28.05;;;6.60;;
66143;SDS011;52947;50.842;6.084;2023-12-22T06:18:16;30.35;;;7.50;;
66143;SDS011;52947;50.842;6.084;2023-12-22T06:20:45;24.60;;;7.32;;
66143;SDS011;52947;50.842;6.084;2023-12-22T06:23:13;40.55;;;8.77;;
66143;SDS011;52947;50.842;6.084;2023-12-22T06:25:41;26.88;;;7.78;;
66143;SDS011;52947;50.842;6.084;2023-12-22T06:28:09;37.90;;;7.45;;
66143;SDS011;52947;50.842;6.084;2023-12-22T06:30:37;43.90;;;10.93;;
66143;SDS011;52947;50.842;6.084;2023-12-22T06:33:05;55.70;;;9.27;;
66143;SDS011;52947;50.842;6.084;2023-12-22T06:35:33;38.88;;;8.18;;
66143;SDS011;52947;50.842;6.084;2023-12-22T06:38:03;43.28;;;7.95;;
66143;SDS011;52947;50.842;6.084;2023-12-22T06:40:34;44.95;;;10.60;;
66143;SDS011;52947;50.842;6.084;2023-12-22T06:43:02;31.00;;;7.97;;
66143;SDS011;52947;50.842;6.084;2023-12-22T06:45:30;36.25;;;8.75;;
66143;SDS011;52947;50.842;6.084;2023-12-22T06:47:58;41.58;;;8.80;;
66143;SDS011;52947;50.842;6.084;2023-12-22T06:50:27;37.70;;;9.75;;
66143;SDS011;52947;50.842;6.084;2023-12-22T06:52:55;32.45;;;8.25;;
66143;SDS011;52947;50.842;6.084;2023-12-22T06:55:29;46.77;;;8.47;;
66143;SDS011;52947;50.842;6.084;2023-12-22T06:57:57;45.13;;;9.32;;
66143;SDS011;52947;50.842;6.084;2023-12-22T07:00:25;24.55;;;6.43;;
66143;SDS011;52947;50.842;6.084;2023-12-22T07:02:53;46.58;;;9.73;;
66143;SDS011;52947;50.842;6.084;2023-12-22T07:05:31;28.80;;;7.13;;
66143;SDS011;52947;50.842;6.084;2023-12-22T07:08:00;39.58;;;9.05;;
66143;SDS011;52947;50.842;6.084;2023-12-22T07:10:30;48.13;;;8.40;;
66143;SDS011;52947;50.842;6.084;2023-12-22T07:12:58;37.10;;;9.50;;
66143;SDS011;52947;50.842;6.084;2023-12-22T07:15:26;39.67;;;7.82;;
66143;SDS011;52947;50.842;6.084;2023-12-22T07:17:54;47.22;;;8.68;;
66143;SDS011;52947;50.842;6.084;2023-12-22T07:20:22;40.10;;;9.85;;
66143;SDS011;52947;50.842;6.084;2023-12-22T07:22:50;51.95;;;10.93;;
66143;SDS011;52947;50.842;6.084;2023-12-22T07:25:21;33.97;;;10.48;;
66143;SDS011;52947;50.842;6.084;2023-12-22T07:27:51;36.22;;;8.45;;
66143;SDS011;52947;50.842;6.084;2023-12-22T07:30:19;34.83;;;9.00;;
66143;SDS011;52947;50.842;6.084;2023-12-22T07:32:47;41.80;;;8.57;;
66143;SDS011;52947;50.842;6.084;2023-12-22T07:35:19;41.78;;;9.02;;
66143;SDS011;52947;50.842;6.084;2023-12-22T07:37:47;44.25;;;8.77;;
66143;SDS011;52947;50.842;6.084;2023-12-22T07:40:15;38.67;;;7.70;;
66143;SDS011;52947;50.842;6.084;2023-12-22T07:42:43;31.52;;;9.32;;
66143;SDS011;52947;50.842;6.084;2023-12-22T07:45:12;38.70;;;8.38;;
66143;SDS011;52947;50.842;6.084;2023-12-22T07:47:40;34.45;;;8.05;;
66143;SDS011;52947;50.842;6.084;2023-12-22T07:50:08;39.50;;;9.00;;
66143;SDS011;52947;50.842;6.084;2023-12-22T07:52:36;36.90;;;7.82;;
66143;SDS011;52947;50.842;6.084;2023-12-22T07:55:06;47.10;;;10.32;;
66143;SDS011;52947;50.842;6.084;2023-12-22T07:57:37;48.40;;;8.93;;
66143;SDS011;52947;50.842;6.084;2023-12-22T08:00:06;37.53;;;9.85;;
66143;SDS011;52947;50.842;6.084;2023-12-22T08:02:39;30.70;;;8.50;;
66143;SDS011;52947;50.842;6.084;2023-12-22T08:05:07;53.38;;;9.88;;
66143;SDS011;52947;50.842;6.084;2023-12-22T08:07:36;41.33;;;10.25;;
66143;SDS011;52947;50.842;6.084;2023-12-22T08:10:04;46.22;;;9.88;;
66143;SDS011;52947;50.842;6.084;2023-12-22T08:12:33;37.25;;;9.18;;
66143;SDS011;52947;50.842;6.084;2023-12-22T08:15:02;63.15;;;13.57;;
66143;SDS011;52947;50.842;6.084;2023-12-22T08:17:30;34.20;;;11.13;;
66143;SDS011;52947;50.842;6.084;2023-12-22T08:20:00;37.95;;;8.85;;
66143;SDS011;52947;50.842;6.084;2023-12-22T08:22:38;32.83;;;7.93;;
66143;SDS011;52947;50.842;6.084;2023-12-22T08:25:11;37.40;;;8.20;;
66143;SDS011;52947;50.842;6.084;2023-12-22T08:27:40;34.38;;;8.35;;
66143;SDS011;52947;50.842;6.084;2023-12-22T08:30:08;41.75;;;7.88;;
66143;SDS011;52947;50.842;6.084;2023-12-22T08:32:37;26.90;;;7.45;;
66143;SDS011;52947;50.842;6.084;2023-12-22T08:35:07;39.92;;;9.50;;
66143;SDS011;52947;50.842;6.084;2023-12-22T08:37:35;30.17;;;7.75;;
66143;SDS011;52947;50.842;6.084;2023-12-22T08:40:05;45.72;;;8.40;;
66143;SDS011;52947;50.842;6.084;2023-12-22T08:42:33;31.30;;;6.50;;
66143;SDS011;52947;50.842;6.084;2023-12-22T08:45:02;32.35;;;6.75;;
66143;SDS011;52947;50.842;6.084;2023-12-22T08:47:32;37.58;;;8.93;;
66143;SDS011;52947;50.842;6.084;2023-12-22T08:50:00;32.42;;;7.65;;
66143;SDS011;52947;50.842;6.084;2023-12-22T08:52:32;29.25;;;6.50;;
66143;SDS011;52947;50.842;6.084;2023-12-22T08:55:00;30.95;;;6.63;;
66143;SDS011;52947;50.842;6.084;2023-12-22T08:57:28;34.13;;;6.10;;
66143;SDS011;52947;50.842;6.084;2023-12-22T08:59:56;25.58;;;7.25;;
66143;SDS011;52947;50.842;6.084;2023-12-22T09:02:24;28.67;;;6.13;;
66143;SDS011;52947;50.842;6.084;2023-12-22T09:04:53;30.25;;;6.63;;
66143;SDS011;52947;50.842;6.084;2023-12-22T09:07:21;24.38;;;7.25;;
66143;SDS011;52947;50.842;6.084;2023-12-22T09:09:52;25.42;;;6.47;;
66143;SDS011;52947;50.842;6.084;2023-12-22T09:12:20;23.95;;;6.07;;
66143;SDS011;52947;50.842;6.084;2023-12-22T09:14:49;25.92;;;6.07;;
66143;SDS011;52947;50.842;6.084;2023-12-22T09:17:17;13.65;;;5.50;;
66143;SDS011;52947;50.842;6.084;2023-12-22T09:19:45;18.67;;;6.05;;
66143;SDS011;52947;50.842;6.084;2023-12-22T09:22:13;18.02;;;5.40;;
66143;SDS011;52947;50.842;6.084;2023-12-22T09:24:42;21.38;;;6.15;;
66143;SDS011;52947;50.842;6.084;2023-12-22T09:27:11;17.70;;;6.38;;
66143;SDS011;52947;50.842;6.084;2023-12-22T09:29:57;23.58;;;6.97;;
66143;SDS011;52947;50.842;6.084;2023-12-22T09:32:25;19.05;;;6.43;;
66143;SDS011;52947;50.842;6.084;2023-12-22T09:34:56;20.27;;;7.15;;
66143;SDS011;52947;50.842;6.084;2023-12-22T09:37:26;17.95;;;5.47;;
66143;SDS011;52947;50.842;6.084;2023-12-22T09:39:54;8.32;;;5.13;;
66143;SDS011;52947;50.842;6.084;2023-12-22T09:42:23;18.30;;;6.70;;
66143;SDS011;52947;50.842;6.084;2023-12-22T09:44:53;16.80;;;6.10;;
66143;SDS011;52947;50.842;6.084;2023-12-22T09:47:24;24.60;;;6.20;;
66143;SDS011;52947;50.842;6.084;2023-12-22T09:49:56;17.77;;;6.63;;
66143;SDS011;52947;50.842;6.084;2023-12-22T09:52:25;23.13;;;7.10;;
66143;SDS011;52947;50.842;6.084;2023-12-22T09:54:55;23.30;;;8.05;;
66143;SDS011;52947;50.842;6.084;2023-12-22T09:57:25;15.18;;;4.47;;
66143;SDS011;52947;50.842;6.084;2023-12-22T09:59:54;17.23;;;5.18;;
66143;SDS011;52947;50.842;6.084;2023-12-22T10:02:23;13.25;;;5.07;;
66143;SDS011;52947;50.842;6.084;2023-12-22T10:04:53;11.50;;;5.07;;
66143;SDS011;52947;50.842;6.084;2023-12-22T10:07:21;9.93;;;4.28;;
66143;SDS011;52947;50.842;6.084;2023-12-22T10:09:49;14.40;;;6.05;;
66143;SDS011;52947;50.842;6.084;2023-12-22T10:12:18;19.20;;;6.47;;
66143;SDS011;52947;50.842;6.084;2023-12-22T10:14:48;10.32;;;4.55;;
66143;SDS011;52947;50.842;6.084;2023-12-22T10:17:17;11.02;;;5.50;;
66143;SDS011;52947;50.842;6.084;2023-12-22T10:19:46;8.32;;;5.32;;
66143;SDS011;52947;50.842;6.084;2023-12-22T10:22:14;7.55;;;5.82;;
66143;SDS011;52947;50.842;6.084;2023-12-22T10:24:42;10.20;;;5.13;;
66143;SDS011;52947;50.842;6.084;2023-12-22T10:27:14;11.07;;;5.40;;
66143;SDS011;52947;50.842;6.084;2023-12-22T10:29:43;7.63;;;5.22;;
66143;SDS011;52947;50.842;6.084;2023-12-22T10:32:12;13.20;;;6.13;;
66143;SDS011;52947;50.842;6.084;2023-12-22T10:34:40;8.10;;;4.85;;
66143;SDS011;52947;50.842;6.084;2023-12-22T10:37:09;4.63;;;4.18;;
66143;SDS011;52947;50.842;6.084;2023-12-22T10:39:39;8.65;;;4.90;;
66143;SDS011;52947;50.842;6.084;2023-12-22T10:42:07;10.00;;;5.25;;
66143;SDS011;52947;50.842;6.084;2023-12-22T10:44:40;6.03;;;4.75;;
66143;SDS011;52947;50.842;6.084;2023-12-22T10:47:09;7.57;;;4.78;;
66143;SDS011;52947;50.842;6.084;2023-12-22T10:49:38;7.72;;;5.28;;
66143;SDS011;52947;50.842;6.084;2023-12-22T10:52:08;6.88;;;4.57;;
66143;SDS011;52947;50.842;6.084;2023-12-22T10:54:42;7.45;;;4.22;;
66143;SDS011;52947;50.842;6.084;2023-12-22T10:57:10;8.35;;;5.10;;
66143;SDS011;52947;50.842;6.084;2023-12-22T10:59:40;9.18;;;4.95;;
66143;SDS011;52947;50.842;6.084;2023-12-22T11:02:25;10.75;;;5.00;;
66143;SDS011;52947;50.842;6.084;2023-12-22T11:04:57;6.32;;;4.30;;
66143;SDS011;52947;50.842;6.084;2023-12-22T11:07:32;5.93;;;4.55;;
66143;SDS011;52947;50.842;6.084;2023-12-22T11:10:03;5.40;;;4.43;;
66143;SDS011;52947;50.842;6.084;2023-12-22T11:12:33;6.78;;;5.60;;
66143;SDS011;52947;50.842;6.084;2023-12-22T11:15:03;8.73;;;5.20;;
66143;SDS011;52947;50.842;6.084;2023-12-22T11:17:34;11.48;;;5.88;;
66143;SDS011;52947;50.842;6.084;2023-12-22T11:20:09;9.60;;;4.35;;
66143;SDS011;52947;50.842;6.084;2023-12-22T11:22:38;10.23;;;4.95;;
66143;SDS011;52947;50.842;6.084;2023-12-22T11:25:07;7.20;;;4.22;;
66143;SDS011;52947;50.842;6.084;2023-12-22T11:27:40;4.70;;;4.07;;
66143;SDS011;52947;50.842;6.084;2023-12-22T11:30:10;8.70;;;4.57;;
66143;SDS011;52947;50.842;6.084;2023-12-22T11:32:39;6.65;;;5.10;;
66143;SDS011;52947;50.842;6.084;2023-12-22T11:35:10;9.20;;;4.95;;
66143;SDS011;52947;50.842;6.084;2023-12-22T11:37:38;7.82;;;4.47;;
66143;SDS011;52947;50.842;6.084;2023-12-22T11:40:07;5.43;;;4.50;;
66143;SDS011;52947;50.842;6.084;2023-12-22T11:42:36;10.88;;;4.65;;
66143;SDS011;52947;50.842;6.084;2023-12-22T11:45:13;11.63;;;5.20;;
66143;SDS011;52947;50.842;6.084;2023-12-22T11:47:43;8.32;;;4.10;;
66143;SDS011;52947;50.842;6.084;2023-12-22T11:50:13;7.95;;;4.75;;
66143;SDS011;52947;50.842;6.084;2023-12-22T11:52:56;4.80;;;4.32;;
66143;SDS011;52947;50.842;6.084;2023-12-22T11:58:33;7.15;;;5.35;;
66143;SDS011;52947;50.842;6.084;2023-12-22T12:01:02;7.43;;;4.40;;
66143;SDS011;52947;50.842;6.084;2023-12-22T12:03:32;7.45;;;5.53;;
66143;SDS011;52947;50.842;6.084;2023-12-22T12:06:13;11.55;;;4.93;;
66143;SDS011;52947;50.842;6.084;2023-12-22T12:08:43;11.07;;;4.47;;
66143;SDS011;52947;50.842;6.084;2023-12-22T12:11:11;10.32;;;4.50;;
66143;SDS011;52947;50.842;6.084;2023-12-22T12:13:41;7.80;;;5.15;;
66143;SDS011;52947;50.842;6.084;2023-12-22T12:16:11;12.88;;;4.57;;
66143;SDS011;52947;50.842;6.084;2023-12-22T12:18:40;13.77;;;5.10;;
66143;SDS011;52947;50.842;6.084;2023-12-22T12:21:09;9.68;;;5.03;;
66143;SDS011;52947;50.842;6.084;2023-12-22T12:23:40;13.98;;;5.97;;
66143;SDS011;52947;50.842;6.084;2023-12-22T12:26:08;12.30;;;4.13;;
66143;SDS011;52947;50.842;6.084;2023-12-22T12:28:38;6.00;;;4.10;;
66143;SDS011;52947;50.842;6.084;2023-12-22T12:31:11;8.20;;;3.88;;
66143;SDS011;52947;50.842;6.084;2023-12-22T12:33:57;10.13;;;4.32;;
66143;SDS011;52947;50.842;6.084;2023-12-22T12:36:26;14.82;;;4.95;;
66143;SDS011;52947;50.842;6.084;2023-12-22T12:38:58;6.38;;;4.07;;
66143;SDS011;52947;50.842;6.084;2023-12-22T12:41:35;14.90;;;5.47;;
66143;SDS011;52947;50.842;6.084;2023-12-22T12:44:06;8.65;;;3.72;;
66143;SDS011;52947;50.842;6.084;2023-12-22T12:46:36;8.27;;;4.35;;
66143;SDS011;52947;50.842;6.084;2023-12-22T12:49:05;8.35;;;4.05;;
66143;SDS011;52947;50.842;6.084;2023-12-22T12:51:37;10.02;;;3.92;;
66143;SDS011;52947;50.842;6.084;2023-12-22T12:54:07;14.90;;;4.47;;
66143;SDS011;52947;50.842;6.084;2023-12-22T12:56:36;7.97;;;3.60;;
66143;SDS011;52947;50.842;6.084;2023-12-22T12:59:06;8.45;;;3.95;;
66143;SDS011;52947;50.842;6.084;2023-12-22T13:01:39;12.55;;;6.22;;
66143;SDS011;52947;50.842;6.084;2023-12-22T13:04:08;6.95;;;4.10;;
66143;SDS011;52947;50.842;6.084;2023-12-22T13:06:42;8.50;;;3.58;;
66143;SDS011;52947;50.842;6.084;2023-12-22T13:09:12;8.80;;;3.70;;
66143;SDS011;52947;50.842;6.084;2023-12-22T13:11:41;7.60;;;3.97;;
66143;SDS011;52947;50.842;6.084;2023-12-22T13:14:10;5.38;;;4.20;;
66143;SDS011;52947;50.842;6.084;2023-12-22T13:16:38;5.15;;;3.67;;
66143;SDS011;52947;50.842;6.084;2023-12-22T13:19:07;10.05;;;3.75;;
66143;SDS011;52947;50.842;6.084;2023-12-22T13:21:35;5.90;;;4.00;;
66143;SDS011;52947;50.842;6.084;2023-12-22T13:24:11;9.98;;;4.30;;
66143;SDS011;52947;50.842;6.084;2023-12-22T13:26:41;11.38;;;4.47;;
66143;SDS011;52947;50.842;6.084;2023-12-22T13:29:10;7.35;;;3.78;;
66143;SDS011;52947;50.842;6.084;2023-12-22T13:31:40;6.18;;;4.13;;
66143;SDS011;52947;50.842;6.084;2023-12-22T13:34:09;11.35;;;4.15;;
66143;SDS011;52947;50.842;6.084;2023-12-22T13:36:38;7.93;;;4.18;;
66143;SDS011;52947;50.842;6.084;2023-12-22T13:39:06;6.60;;;4.25;;
66143;SDS011;52947;50.842;6.084;2023-12-22T13:41:36;6.35;;;3.95;;
66143;SDS011;52947;50.842;6.084;2023-12-22T13:44:07;11.10;;;4.78;;
66143;SDS011;52947;50.842;6.084;2023-12-22T13:46:35;8.95;;;4.57;;
66143;SDS011;52947;50.842;6.084;2023-12-22T13:49:06;12.70;;;4.35;;
66143;SDS011;52947;50.842;6.084;2023-12-22T13:51:38;8.35;;;5.72;;
66143;SDS011;52947;50.842;6.084;2023-12-22T13:54:07;9.40;;;5.38;;
66143;SDS011;52947;50.842;6.084;2023-12-22T13:56:37;12.18;;;4.57;;
66143;SDS011;52947;50.842;6.084;2023-12-22T13:59:06;7.53;;;4.72;;
66143;SDS011;52947;50.842;6.084;2023-12-22T14:01:35;9.75;;;4.82;;
66143;SDS011;52947;50.842;6.084;2023-12-22T14:04:03;12.05;;;7.10;;
66143;SDS011;52947;50.842;6.084;2023-12-22T14:06:31;20.25;;;5.35;;
66143;SDS011;52947;50.842;6.084;2023-12-22T14:09:00;13.70;;;5.55;;
66143;SDS011;52947;50.842;6.084;2023-12-22T14:11:28;6.07;;;5.47;;
66143;SDS011;52947;50.842;6.084;2023-12-22T14:13:59;24.55;;;4.88;;
66143;SDS011;52947;50.842;6.084;2023-12-22T14:16:27;11.32;;;4.60;;
66143;SDS011;52947;50.842;6.084;2023-12-22T14:18:56;9.90;;;4.15;;
66143;SDS011;52947;50.842;6.084;2023-12-22T14:21:24;10.93;;;4.30;;
66143;SDS011;52947;50.842;6.084;2023-12-22T14:23:52;6.80;;;4.10;;
66143;SDS011;52947;50.842;6.084;2023-12-22T14:26:20;12.88;;;5.53;;
66143;SDS011;52947;50.842;6.084;2023-12-22T14:28:48;13.07;;;5.30;;
66143;SDS011;52947;50.842;6.084;2023-12-22T14:31:19;17.60;;;4.70;;
66143;SDS011;52947;50.842;6.084;2023-12-22T14:33:48;12.65;;;5.20;;
66143;SDS011;52947;50.842;6.084;2023-12-22T14:36:16;9.02;;;5.68;;
66143;SDS011;52947;50.842;6.084;2023-12-22T14:38:44;8.35;;;4.63;;
66143;SDS011;52947;50.842;6.084;2023-12-22T14:41:12;12.10;;;4.63;;
66143;SDS011;52947;50.842;6.084;2023-12-22T14:43:41;9.27;;;5.07;;
66143;SDS011;52947;50.842;6.084;2023-12-22T14:46:09;15.82;;;6.20;;
66143;SDS011;52947;50.842;6.084;2023-12-22T14:48:38;17.52;;;4.97;;
66143;SDS011;52947;50.842;6.084;2023-12-22T14:51:07;12.05;;;4.93;;